sensor_id;sensor_type;location;lat;lon;timestamp;temperature;humidity
6102;DHT22;3081;50.584;7.032;2024-01-30T00:01:19;9.20;99.90
6102;DHT22;3081;50.584;7.032;2024-01-30T00:03:46;9.20;99.90
6102;DHT22;3081;50.584;7.032;2024-01-30T00:06:13;9.20;99.90
6102;DHT22;3081;50.584;7.032;2024-01-30T00:08:41;9.20;99.90
6102;DHT22;3081;50.584;7.032;2024-01-30T00:11:12;9.20;99.90
6102;DHT22;3081;50.584;7.032;2024-01-30T00:13:39;9.20;99.90
6102;DHT22;3081;50.584;7.032;2024-01-30T00:16:06;9.20;99.90
6102;DHT22;3081;50.584;7.032;2024-01-30T00:18:34;9.20;99.90
6102;DHT22;3081;50.584;7.032;2024-01-30T00:21:01;9.20;99.90
6102;DHT22;3081;50.584;7.032;2024-01-30T00:23:28;9.20;99.90
6102;DHT22;3081;50.584;7.032;2024-01-30T00:25:57;9.20;99.90
6102;DHT22;3081;50.584;7.032;2024-01-30T00:28:23;9.30;99.90
6102;DHT22;3081;50.584;7.032;2024-01-30T00:30:50;9.30;99.90
6102;DHT22;3081;50.584;7.032;2024-01-30T00:33:17;9.30;99.90
6102;DHT22;3081;50.584;7.032;2024-01-30T00:35:44;9.30;99.90
6102;DHT22;3081;50.584;7.032;2024-01-30T00:38:11;9.30;99.90
6102;DHT22;3081;50.584;7.032;2024-01-30T00:40:38;9.30;99.90
6102;DHT22;3081;50.584;7.032;2024-01-30T00:43:06;9.30;99.90
6102;DHT22;3081;50.584;7.032;2024-01-30T00:45:33;9.30;99.90
6102;DHT22;3081;50.584;7.032;2024-01-30T00:48:00;9.30;99.90
6102;DHT22;3081;50.584;7.032;2024-01-30T00:50:29;9.30;99.90
6102;DHT22;3081;50.584;7.032;2024-01-30T00:52:55;9.30;99.90
6102;DHT22;3081;50.584;7.032;2024-01-30T00:55:22;9.10;99.90
6102;DHT22;3081;50.584;7.032;2024-01-30T00:57:49;9.00;99.90
6102;DHT22;3081;50.584;7.032;2024-01-30T01:00:18;8.70;99.90
6102;DHT22;3081;50.584;7.032;2024-01-30T01:02:46;8.60;99.90
6102;DHT22;3081;50.584;7.032;2024-01-30T01:05:13;8.50;99.90
6102;DHT22;3081;50.584;7.032;2024-01-30T01:07:40;8.60;99.90
6102;DHT22;3081;50.584;7.032;2024-01-30T01:10:08;8.70;99.90
6102;DHT22;3081;50.584;7.032;2024-01-30T01:12:37;8.80;99.90
6102;DHT22;3081;50.584;7.032;2024-01-30T01:15:04;8.90;99.90
6102;DHT22;3081;50.584;7.032;2024-01-30T01:17:32;9.00;99.90
6102;DHT22;3081;50.584;7.032;2024-01-30T01:19:59;9.10;99.90
6102;DHT22;3081;50.584;7.032;2024-01-30T01:22:26;9.10;99.90
6102;DHT22;3081;50.584;7.032;2024-01-30T01:24:53;9.00;99.90
6102;DHT22;3081;50.584;7.032;2024-01-30T01:27:20;8.90;99.90
6102;DHT22;3081;50.584;7.032;2024-01-30T01:29:47;8.90;99.90
6102;DHT22;3081;50.584;7.032;2024-01-30T01:32:14;8.80;99.90
6102;DHT22;3081;50.584;7.032;2024-01-30T01:34:43;8.80;99.90
6102;DHT22;3081;50.584;7.032;2024-01-30T01:37:10;8.90;99.90
6102;DHT22;3081;50.584;7.032;2024-01-30T01:39:37;8.90;99.90
6102;DHT22;3081;50.584;7.032;2024-01-30T01:42:04;9.10;99.90
6102;DHT22;3081;50.584;7.032;2024-01-30T01:44:31;9.10;99.90
6102;DHT22;3081;50.584;7.032;2024-01-30T01:46:58;9.20;99.90
6102;DHT22;3081;50.584;7.032;2024-01-30T01:49:25;9.20;99.90
6102;DHT22;3081;50.584;7.032;2024-01-30T01:51:56;9.30;99.90
6102;DHT22;3081;50.584;7.032;2024-01-30T01:54:24;9.20;99.90
6102;DHT22;3081;50.584;7.032;2024-01-30T01:56:52;9.20;99.90
6102;DHT22;3081;50.584;7.032;2024-01-30T01:59:20;9.20;99.90
6102;DHT22;3081;50.584;7.032;2024-01-30T02:01:47;9.20;99.90
6102;DHT22;3081;50.584;7.032;2024-01-30T02:04:15;9.20;99.90
6102;DHT22;3081;50.584;7.032;2024-01-30T02:06:43;9.10;99.90
6102;DHT22;3081;50.584;7.032;2024-01-30T02:09:11;9.10;99.90
6102;DHT22;3081;50.584;7.032;2024-01-30T02:11:38;9.00;99.90
6102;DHT22;3081;50.584;7.032;2024-01-30T02:14:06;8.80;99.90
6102;DHT22;3081;50.584;7.032;2024-01-30T02:16:33;8.70;99.90
6102;DHT22;3081;50.584;7.032;2024-01-30T02:19:00;8.50;99.90
6102;DHT22;3081;50.584;7.032;2024-01-30T02:21:28;8.30;99.90
6102;DHT22;3081;50.584;7.032;2024-01-30T02:23:55;8.10;99.90
6102;DHT22;3081;50.584;7.032;2024-01-30T02:26:23;8.00;99.90
6102;DHT22;3081;50.584;7.032;2024-01-30T02:28:50;7.90;99.90
6102;DHT22;3081;50.584;7.032;2024-01-30T02:31:17;7.80;99.90
6102;DHT22;3081;50.584;7.032;2024-01-30T02:33:44;7.70;99.90
6102;DHT22;3081;50.584;7.032;2024-01-30T02:36:11;7.70;99.90
6102;DHT22;3081;50.584;7.032;2024-01-30T02:38:39;7.60;99.90
6102;DHT22;3081;50.584;7.032;2024-01-30T02:41:06;7.40;99.90
6102;DHT22;3081;50.584;7.032;2024-01-30T02:43:33;7.40;99.90
6102;DHT22;3081;50.584;7.032;2024-01-30T02:46:00;7.30;99.90
6102;DHT22;3081;50.584;7.032;2024-01-30T02:48:27;7.30;99.90
6102;DHT22;3081;50.584;7.032;2024-01-30T02:50:54;7.30;99.90
6102;DHT22;3081;50.584;7.032;2024-01-30T02:53:20;7.30;99.90
6102;DHT22;3081;50.584;7.032;2024-01-30T02:55:49;7.30;99.90
6102;DHT22;3081;50.584;7.032;2024-01-30T02:58:16;7.20;99.90
6102;DHT22;3081;50.584;7.032;2024-01-30T03:00:42;7.20;99.90
6102;DHT22;3081;50.584;7.032;2024-01-30T03:03:09;7.20;99.90
6102;DHT22;3081;50.584;7.032;2024-01-30T03:05:36;7.10;99.90
6102;DHT22;3081;50.584;7.032;2024-01-30T03:08:04;7.10;99.90
6102;DHT22;3081;50.584;7.032;2024-01-30T03:10:31;7.10;99.90
6102;DHT22;3081;50.584;7.032;2024-01-30T03:13:00;7.00;99.90
6102;DHT22;3081;50.584;7.032;2024-01-30T03:15:27;7.00;99.90
6102;DHT22;3081;50.584;7.032;2024-01-30T03:17:54;7.00;99.90
6102;DHT22;3081;50.584;7.032;2024-01-30T03:20:20;6.90;99.90
6102;DHT22;3081;50.584;7.032;2024-01-30T03:22:47;6.90;99.90
6102;DHT22;3081;50.584;7.032;2024-01-30T03:25:14;6.80;99.90
6102;DHT22;3081;50.584;7.032;2024-01-30T03:27:41;6.80;99.90
6102;DHT22;3081;50.584;7.032;2024-01-30T03:30:10;6.80;99.90
6102;DHT22;3081;50.584;7.032;2024-01-30T03:32:37;6.80;99.90
6102;DHT22;3081;50.584;7.032;2024-01-30T03:35:05;6.80;99.90
6102;DHT22;3081;50.584;7.032;2024-01-30T03:37:32;6.90;99.90
6102;DHT22;3081;50.584;7.032;2024-01-30T03:39:58;6.80;99.90
6102;DHT22;3081;50.584;7.032;2024-01-30T03:42:25;6.90;99.90
6102;DHT22;3081;50.584;7.032;2024-01-30T03:44:52;6.90;99.90
6102;DHT22;3081;50.584;7.032;2024-01-30T03:47:21;6.90;99.90
6102;DHT22;3081;50.584;7.032;2024-01-30T03:49:48;6.90;99.90
6102;DHT22;3081;50.584;7.032;2024-01-30T03:52:15;6.90;99.90
6102;DHT22;3081;50.584;7.032;2024-01-30T03:54:42;6.90;99.90
6102;DHT22;3081;50.584;7.032;2024-01-30T03:57:09;6.90;99.90
6102;DHT22;3081;50.584;7.032;2024-01-30T03:59:36;7.00;99.90
6102;DHT22;3081;50.584;7.032;2024-01-30T04:02:03;7.00;99.90
6102;DHT22;3081;50.584;7.032;2024-01-30T04:04:31;7.00;99.90
6102;DHT22;3081;50.584;7.032;2024-01-30T04:06:58;7.10;99.90
6102;DHT22;3081;50.584;7.032;2024-01-30T04:09:25;7.10;99.90
6102;DHT22;3081;50.584;7.032;2024-01-30T04:11:54;7.10;99.90
6102;DHT22;3081;50.584;7.032;2024-01-30T04:14:21;7.10;99.90
6102;DHT22;3081;50.584;7.032;2024-01-30T04:16:47;7.20;99.90
6102;DHT22;3081;50.584;7.032;2024-01-30T04:19:14;7.20;99.90
6102;DHT22;3081;50.584;7.032;2024-01-30T04:21:43;7.20;99.90
6102;DHT22;3081;50.584;7.032;2024-01-30T04:24:09;7.30;99.90
6102;DHT22;3081;50.584;7.032;2024-01-30T04:26:36;7.20;99.90
6102;DHT22;3081;50.584;7.032;2024-01-30T04:29:03;7.20;99.90
6102;DHT22;3081;50.584;7.032;2024-01-30T04:31:30;7.20;99.90
6102;DHT22;3081;50.584;7.032;2024-01-30T04:33:57;7.20;99.90
6102;DHT22;3081;50.584;7.032;2024-01-30T04:36:24;7.20;99.90
6102;DHT22;3081;50.584;7.032;2024-01-30T04:38:52;7.30;99.90
6102;DHT22;3081;50.584;7.032;2024-01-30T04:41:19;7.40;99.90
6102;DHT22;3081;50.584;7.032;2024-01-30T04:43:46;7.40;99.90
6102;DHT22;3081;50.584;7.032;2024-01-30T04:46:13;7.50;99.90
6102;DHT22;3081;50.584;7.032;2024-01-30T04:48:40;7.50;99.90
6102;DHT22;3081;50.584;7.032;2024-01-30T04:51:06;7.40;99.90
6102;DHT22;3081;50.584;7.032;2024-01-30T04:53:33;7.30;99.90
6102;DHT22;3081;50.584;7.032;2024-01-30T04:56:02;7.10;99.90
6102;DHT22;3081;50.584;7.032;2024-01-30T04:58:29;7.00;99.90
6102;DHT22;3081;50.584;7.032;2024-01-30T05:00:56;6.90;99.90
6102;DHT22;3081;50.584;7.032;2024-01-30T05:03:23;6.90;99.90
6102;DHT22;3081;50.584;7.032;2024-01-30T05:05:50;6.80;99.90
6102;DHT22;3081;50.584;7.032;2024-01-30T05:08:16;6.80;99.90
6102;DHT22;3081;50.584;7.032;2024-01-30T05:10:43;6.80;99.90
6102;DHT22;3081;50.584;7.032;2024-01-30T05:13:12;6.90;99.90
6102;DHT22;3081;50.584;7.032;2024-01-30T05:15:39;6.90;99.90
6102;DHT22;3081;50.584;7.032;2024-01-30T05:18:06;6.80;99.90
6102;DHT22;3081;50.584;7.032;2024-01-30T05:20:33;6.80;99.90
6102;DHT22;3081;50.584;7.032;2024-01-30T05:23:00;6.80;99.90
6102;DHT22;3081;50.584;7.032;2024-01-30T05:25:27;6.80;99.90
6102;DHT22;3081;50.584;7.032;2024-01-30T05:27:54;6.90;99.90
6102;DHT22;3081;50.584;7.032;2024-01-30T05:30:23;6.90;99.90
6102;DHT22;3081;50.584;7.032;2024-01-30T05:32:50;7.00;99.90
6102;DHT22;3081;50.584;7.032;2024-01-30T05:35:18;7.00;99.90
6102;DHT22;3081;50.584;7.032;2024-01-30T05:37:47;7.00;99.90
6102;DHT22;3081;50.584;7.032;2024-01-30T05:40:14;7.10;99.90
6102;DHT22;3081;50.584;7.032;2024-01-30T05:42:41;7.20;99.90
6102;DHT22;3081;50.584;7.032;2024-01-30T05:45:08;7.30;99.90
6102;DHT22;3081;50.584;7.032;2024-01-30T05:47:36;7.30;99.90
6102;DHT22;3081;50.584;7.032;2024-01-30T05:50:04;7.40;99.90
6102;DHT22;3081;50.584;7.032;2024-01-30T05:52:31;7.50;99.90
6102;DHT22;3081;50.584;7.032;2024-01-30T05:54:58;7.50;99.90
6102;DHT22;3081;50.584;7.032;2024-01-30T05:57:25;7.60;99.90
6102;DHT22;3081;50.584;7.032;2024-01-30T05:59:52;7.60;99.90
6102;DHT22;3081;50.584;7.032;2024-01-30T06:02:19;7.70;99.90
6102;DHT22;3081;50.584;7.032;2024-01-30T06:04:47;7.70;99.90
6102;DHT22;3081;50.584;7.032;2024-01-30T06:07:14;7.80;99.90
6102;DHT22;3081;50.584;7.032;2024-01-30T06:09:43;7.80;99.90
6102;DHT22;3081;50.584;7.032;2024-01-30T06:12:11;7.90;99.90
6102;DHT22;3081;50.584;7.032;2024-01-30T06:14:38;7.90;99.90
6102;DHT22;3081;50.584;7.032;2024-01-30T06:17:05;7.80;99.90
6102;DHT22;3081;50.584;7.032;2024-01-30T06:19:32;7.80;99.90
6102;DHT22;3081;50.584;7.032;2024-01-30T06:22:00;7.80;99.90
6102;DHT22;3081;50.584;7.032;2024-01-30T06:24:30;7.80;99.90
6102;DHT22;3081;50.584;7.032;2024-01-30T06:26:57;7.80;99.90
6102;DHT22;3081;50.584;7.032;2024-01-30T06:29:23;7.70;99.90
6102;DHT22;3081;50.584;7.032;2024-01-30T06:31:52;7.80;99.90
6102;DHT22;3081;50.584;7.032;2024-01-30T06:34:19;7.80;99.90
6102;DHT22;3081;50.584;7.032;2024-01-30T06:36:46;7.80;99.90
6102;DHT22;3081;50.584;7.032;2024-01-30T06:39:14;7.80;99.90
6102;DHT22;3081;50.584;7.032;2024-01-30T06:41:41;7.80;99.90
6102;DHT22;3081;50.584;7.032;2024-01-30T06:44:08;7.80;99.90
6102;DHT22;3081;50.584;7.032;2024-01-30T06:46:35;7.90;99.90
6102;DHT22;3081;50.584;7.032;2024-01-30T06:49:02;7.90;99.90
6102;DHT22;3081;50.584;7.032;2024-01-30T06:51:29;8.10;99.90
6102;DHT22;3081;50.584;7.032;2024-01-30T06:53:56;8.30;99.90
6102;DHT22;3081;50.584;7.032;2024-01-30T06:56:24;8.50;99.90
6102;DHT22;3081;50.584;7.032;2024-01-30T06:58:51;8.60;99.90
6102;DHT22;3081;50.584;7.032;2024-01-30T07:01:18;8.70;99.90
6102;DHT22;3081;50.584;7.032;2024-01-30T07:03:45;8.90;99.90
6102;DHT22;3081;50.584;7.032;2024-01-30T07:06:12;8.90;99.90
6102;DHT22;3081;50.584;7.032;2024-01-30T07:08:39;9.00;99.90
6102;DHT22;3081;50.584;7.032;2024-01-30T07:11:06;9.00;99.90
6102;DHT22;3081;50.584;7.032;2024-01-30T07:13:35;9.00;99.90
6102;DHT22;3081;50.584;7.032;2024-01-30T07:16:02;9.00;99.90
6102;DHT22;3081;50.584;7.032;2024-01-30T07:18:29;9.00;99.90
6102;DHT22;3081;50.584;7.032;2024-01-30T07:20:56;9.00;99.90
6102;DHT22;3081;50.584;7.032;2024-01-30T07:23:23;9.00;99.90
6102;DHT22;3081;50.584;7.032;2024-01-30T07:25:50;9.10;99.90
6102;DHT22;3081;50.584;7.032;2024-01-30T07:28:17;9.00;99.90
6102;DHT22;3081;50.584;7.032;2024-01-30T07:30:45;9.10;99.90
6102;DHT22;3081;50.584;7.032;2024-01-30T07:33:13;9.10;99.90
6102;DHT22;3081;50.584;7.032;2024-01-30T07:35:40;9.20;99.90
6102;DHT22;3081;50.584;7.032;2024-01-30T07:38:07;9.20;99.90
6102;DHT22;3081;50.584;7.032;2024-01-30T07:40:34;9.30;99.90
6102;DHT22;3081;50.584;7.032;2024-01-30T07:43:01;9.30;99.90
6102;DHT22;3081;50.584;7.032;2024-01-30T07:45:29;9.40;99.90
6102;DHT22;3081;50.584;7.032;2024-01-30T07:47:59;9.50;99.90
6102;DHT22;3081;50.584;7.032;2024-01-30T07:50:26;9.50;99.90
6102;DHT22;3081;50.584;7.032;2024-01-30T07:52:53;9.60;99.90
6102;DHT22;3081;50.584;7.032;2024-01-30T07:55:20;9.50;99.90
6102;DHT22;3081;50.584;7.032;2024-01-30T07:57:50;9.50;99.90
6102;DHT22;3081;50.584;7.032;2024-01-30T08:00:17;9.60;99.90
6102;DHT22;3081;50.584;7.032;2024-01-30T08:02:45;9.70;99.90
6102;DHT22;3081;50.584;7.032;2024-01-30T08:05:13;9.70;99.90
6102;DHT22;3081;50.584;7.032;2024-01-30T08:07:40;9.80;99.90
6102;DHT22;3081;50.584;7.032;2024-01-30T08:10:08;9.80;99.90
6102;DHT22;3081;50.584;7.032;2024-01-30T08:12:35;9.80;99.90
6102;DHT22;3081;50.584;7.032;2024-01-30T08:15:02;9.80;99.90
6102;DHT22;3081;50.584;7.032;2024-01-30T08:17:29;9.90;99.90
6102;DHT22;3081;50.584;7.032;2024-01-30T08:19:56;10.00;99.90
6102;DHT22;3081;50.584;7.032;2024-01-30T08:22:25;10.10;99.90
6102;DHT22;3081;50.584;7.032;2024-01-30T08:24:52;10.10;99.90
6102;DHT22;3081;50.584;7.032;2024-01-30T08:27:19;10.20;99.90
6102;DHT22;3081;50.584;7.032;2024-01-30T08:29:46;10.20;99.90
6102;DHT22;3081;50.584;7.032;2024-01-30T08:32:13;10.30;99.90
6102;DHT22;3081;50.584;7.032;2024-01-30T08:34:40;10.40;99.90
6102;DHT22;3081;50.584;7.032;2024-01-30T08:37:07;10.40;99.90
6102;DHT22;3081;50.584;7.032;2024-01-30T08:39:35;10.50;99.90
6102;DHT22;3081;50.584;7.032;2024-01-30T08:42:02;10.50;99.90
6102;DHT22;3081;50.584;7.032;2024-01-30T08:44:29;10.50;99.90
6102;DHT22;3081;50.584;7.032;2024-01-30T08:46:56;10.50;99.90
6102;DHT22;3081;50.584;7.032;2024-01-30T08:49:23;10.60;99.90
6102;DHT22;3081;50.584;7.032;2024-01-30T08:51:50;10.60;99.90
6102;DHT22;3081;50.584;7.032;2024-01-30T08:54:16;10.70;99.90
6102;DHT22;3081;50.584;7.032;2024-01-30T08:56:45;10.80;99.90
6102;DHT22;3081;50.584;7.032;2024-01-30T08:59:12;10.90;99.90
6102;DHT22;3081;50.584;7.032;2024-01-30T09:01:39;11.00;99.90
6102;DHT22;3081;50.584;7.032;2024-01-30T09:04:06;11.20;99.90
6102;DHT22;3081;50.584;7.032;2024-01-30T09:06:33;11.40;99.90
6102;DHT22;3081;50.584;7.032;2024-01-30T09:09:00;11.40;99.90
6102;DHT22;3081;50.584;7.032;2024-01-30T09:11:26;11.40;99.90
6102;DHT22;3081;50.584;7.032;2024-01-30T09:13:55;11.40;99.90
6102;DHT22;3081;50.584;7.032;2024-01-30T09:16:22;11.40;99.90
6102;DHT22;3081;50.584;7.032;2024-01-30T09:18:48;11.40;99.90
6102;DHT22;3081;50.584;7.032;2024-01-30T09:21:15;11.40;99.90
6102;DHT22;3081;50.584;7.032;2024-01-30T09:23:42;11.40;99.90
6102;DHT22;3081;50.584;7.032;2024-01-30T09:26:09;11.40;99.90
6102;DHT22;3081;50.584;7.032;2024-01-30T09:28:38;11.60;99.90
6102;DHT22;3081;50.584;7.032;2024-01-30T09:31:09;12.10;99.90
6102;DHT22;3081;50.584;7.032;2024-01-30T09:33:36;12.80;99.90
6102;DHT22;3081;50.584;7.032;2024-01-30T09:36:04;13.50;99.90
6102;DHT22;3081;50.584;7.032;2024-01-30T09:38:32;14.00;99.90
6102;DHT22;3081;50.584;7.032;2024-01-30T09:41:01;14.70;99.90
6102;DHT22;3081;50.584;7.032;2024-01-30T09:43:33;15.10;99.90
6102;DHT22;3081;50.584;7.032;2024-01-30T09:46:01;15.60;99.90
6102;DHT22;3081;50.584;7.032;2024-01-30T09:48:30;15.50;99.90
6102;DHT22;3081;50.584;7.032;2024-01-30T09:50:58;15.40;99.90
6102;DHT22;3081;50.584;7.032;2024-01-30T09:53:26;14.90;99.90
6102;DHT22;3081;50.584;7.032;2024-01-30T09:55:53;14.20;99.90
6102;DHT22;3081;50.584;7.032;2024-01-30T09:58:20;13.50;99.90
6102;DHT22;3081;50.584;7.032;2024-01-30T10:00:47;13.00;99.90
6102;DHT22;3081;50.584;7.032;2024-01-30T10:03:14;12.70;99.90
6102;DHT22;3081;50.584;7.032;2024-01-30T10:05:45;12.70;99.90
6102;DHT22;3081;50.584;7.032;2024-01-30T10:08:17;12.50;99.90
6102;DHT22;3081;50.584;7.032;2024-01-30T10:10:46;12.40;99.90
6102;DHT22;3081;50.584;7.032;2024-01-30T10:13:13;12.40;99.90
6102;DHT22;3081;50.584;7.032;2024-01-30T10:15:40;12.50;99.90
6102;DHT22;3081;50.584;7.032;2024-01-30T10:18:08;12.50;99.90
6102;DHT22;3081;50.584;7.032;2024-01-30T10:20:35;12.60;99.90
6102;DHT22;3081;50.584;7.032;2024-01-30T10:23:04;12.50;99.90
6102;DHT22;3081;50.584;7.032;2024-01-30T10:25:31;12.50;99.90
6102;DHT22;3081;50.584;7.032;2024-01-30T10:27:59;12.60;99.90
6102;DHT22;3081;50.584;7.032;2024-01-30T10:30:25;12.60;99.90
6102;DHT22;3081;50.584;7.032;2024-01-30T10:32:52;12.50;99.90
6102;DHT22;3081;50.584;7.032;2024-01-30T10:35:19;12.40;99.90
6102;DHT22;3081;50.584;7.032;2024-01-30T10:37:47;12.40;99.90
6102;DHT22;3081;50.584;7.032;2024-01-30T10:40:15;12.30;99.90
6102;DHT22;3081;50.584;7.032;2024-01-30T10:42:43;12.30;99.90
6102;DHT22;3081;50.584;7.032;2024-01-30T10:45:11;12.30;99.90
6102;DHT22;3081;50.584;7.032;2024-01-30T10:47:40;12.10;99.90
6102;DHT22;3081;50.584;7.032;2024-01-30T10:50:08;12.00;99.90
6102;DHT22;3081;50.584;7.032;2024-01-30T10:52:36;11.80;99.90
6102;DHT22;3081;50.584;7.032;2024-01-30T10:55:05;11.70;99.90
6102;DHT22;3081;50.584;7.032;2024-01-30T10:57:35;11.70;99.90
6102;DHT22;3081;50.584;7.032;2024-01-30T11:00:04;11.70;99.90
6102;DHT22;3081;50.584;7.032;2024-01-30T11:02:36;11.60;99.90
6102;DHT22;3081;50.584;7.032;2024-01-30T11:05:05;11.50;99.90
6102;DHT22;3081;50.584;7.032;2024-01-30T11:07:32;11.30;99.90
6102;DHT22;3081;50.584;7.032;2024-01-30T11:10:03;11.30;99.90
6102;DHT22;3081;50.584;7.032;2024-01-30T11:12:31;11.40;99.90
6102;DHT22;3081;50.584;7.032;2024-01-30T11:15:09;11.60;99.90
6102;DHT22;3081;50.584;7.032;2024-01-30T11:17:43;11.80;99.90
6102;DHT22;3081;50.584;7.032;2024-01-30T11:20:11;11.90;99.90
6102;DHT22;3081;50.584;7.032;2024-01-30T11:22:44;11.80;99.90
6102;DHT22;3081;50.584;7.032;2024-01-30T11:25:13;12.00;99.90
6102;DHT22;3081;50.584;7.032;2024-01-30T11:27:41;12.10;99.90
6102;DHT22;3081;50.584;7.032;2024-01-30T11:30:10;12.30;99.90
6102;DHT22;3081;50.584;7.032;2024-01-30T11:32:39;12.30;99.90
6102;DHT22;3081;50.584;7.032;2024-01-30T11:35:06;12.40;99.90
6102;DHT22;3081;50.584;7.032;2024-01-30T11:37:37;12.50;99.90
6102;DHT22;3081;50.584;7.032;2024-01-30T11:40:05;12.50;99.90
6102;DHT22;3081;50.584;7.032;2024-01-30T11:42:36;12.60;99.90
6102;DHT22;3081;50.584;7.032;2024-01-30T11:45:05;12.60;99.90
6102;DHT22;3081;50.584;7.032;2024-01-30T11:47:36;12.60;99.90
6102;DHT22;3081;50.584;7.032;2024-01-30T11:50:04;12.70;99.90
6102;DHT22;3081;50.584;7.032;2024-01-30T11:52:32;12.70;99.90
6102;DHT22;3081;50.584;7.032;2024-01-30T11:55:00;12.70;99.90
6102;DHT22;3081;50.584;7.032;2024-01-30T11:57:28;12.80;99.90
6102;DHT22;3081;50.584;7.032;2024-01-30T11:59:55;12.80;99.90
6102;DHT22;3081;50.584;7.032;2024-01-30T12:02:22;12.90;99.90
6102;DHT22;3081;50.584;7.032;2024-01-30T12:04:50;12.80;99.90
6102;DHT22;3081;50.584;7.032;2024-01-30T12:07:17;12.90;99.90
6102;DHT22;3081;50.584;7.032;2024-01-30T12:09:52;12.90;99.90
6102;DHT22;3081;50.584;7.032;2024-01-30T12:12:21;13.00;99.90
6102;DHT22;3081;50.584;7.032;2024-01-30T12:14:49;13.00;99.90
6102;DHT22;3081;50.584;7.032;2024-01-30T12:17:23;13.00;99.90
6102;DHT22;3081;50.584;7.032;2024-01-30T12:20:02;13.00;99.90
6102;DHT22;3081;50.584;7.032;2024-01-30T12:22:30;12.90;99.90
6102;DHT22;3081;50.584;7.032;2024-01-30T12:24:57;12.90;99.90
6102;DHT22;3081;50.584;7.032;2024-01-30T12:27:24;12.80;99.90
6102;DHT22;3081;50.584;7.032;2024-01-30T12:29:56;12.70;99.90
6102;DHT22;3081;50.584;7.032;2024-01-30T12:32:23;12.70;99.90
6102;DHT22;3081;50.584;7.032;2024-01-30T12:34:54;12.70;99.90
6102;DHT22;3081;50.584;7.032;2024-01-30T12:37:21;12.70;99.90
6102;DHT22;3081;50.584;7.032;2024-01-30T12:39:51;12.70;99.90
6102;DHT22;3081;50.584;7.032;2024-01-30T12:42:19;12.60;99.90
6102;DHT22;3081;50.584;7.032;2024-01-30T12:44:46;12.50;99.90
6102;DHT22;3081;50.584;7.032;2024-01-30T12:47:13;12.60;99.90
6102;DHT22;3081;50.584;7.032;2024-01-30T12:49:41;12.60;99.90
6102;DHT22;3081;50.584;7.032;2024-01-30T12:52:10;12.60;99.90
6102;DHT22;3081;50.584;7.032;2024-01-30T12:54:37;12.60;99.90
6102;DHT22;3081;50.584;7.032;2024-01-30T12:57:04;12.60;99.90
6102;DHT22;3081;50.584;7.032;2024-01-30T12:59:31;12.60;99.90
6102;DHT22;3081;50.584;7.032;2024-01-30T13:02:00;12.50;99.90
6102;DHT22;3081;50.584;7.032;2024-01-30T13:04:28;12.50;99.90
6102;DHT22;3081;50.584;7.032;2024-01-30T13:06:55;12.60;99.90
6102;DHT22;3081;50.584;7.032;2024-01-30T13:09:24;12.60;99.90
6102;DHT22;3081;50.584;7.032;2024-01-30T13:11:51;12.70;99.90
6102;DHT22;3081;50.584;7.032;2024-01-30T13:14:18;12.70;99.90
6102;DHT22;3081;50.584;7.032;2024-01-30T13:16:45;12.70;99.90
6102;DHT22;3081;50.584;7.032;2024-01-30T13:19:12;12.60;99.90
6102;DHT22;3081;50.584;7.032;2024-01-30T13:21:39;12.70;99.90
6102;DHT22;3081;50.584;7.032;2024-01-30T13:24:06;12.60;99.90
6102;DHT22;3081;50.584;7.032;2024-01-30T13:26:35;12.60;99.90
6102;DHT22;3081;50.584;7.032;2024-01-30T13:29:02;12.50;99.90
6102;DHT22;3081;50.584;7.032;2024-01-30T13:31:29;12.60;99.90
6102;DHT22;3081;50.584;7.032;2024-01-30T13:33:56;12.70;99.90
6102;DHT22;3081;50.584;7.032;2024-01-30T13:36:23;13.00;99.90
6102;DHT22;3081;50.584;7.032;2024-01-30T13:38:50;13.10;99.90
6102;DHT22;3081;50.584;7.032;2024-01-30T13:41:16;13.00;99.90
6102;DHT22;3081;50.584;7.032;2024-01-30T13:43:45;13.00;99.90
6102;DHT22;3081;50.584;7.032;2024-01-30T13:46:12;13.00;99.90
6102;DHT22;3081;50.584;7.032;2024-01-30T13:48:39;13.00;99.90
6102;DHT22;3081;50.584;7.032;2024-01-30T13:51:05;12.90;99.90
6102;DHT22;3081;50.584;7.032;2024-01-30T13:53:32;12.80;99.90
6102;DHT22;3081;50.584;7.032;2024-01-30T13:55:59;12.80;99.90
6102;DHT22;3081;50.584;7.032;2024-01-30T13:58:26;12.80;99.90
6102;DHT22;3081;50.584;7.032;2024-01-30T14:00:54;12.70;99.90
6102;DHT22;3081;50.584;7.032;2024-01-30T14:03:21;12.60;99.90
6102;DHT22;3081;50.584;7.032;2024-01-30T14:05:48;12.50;99.90
6102;DHT22;3081;50.584;7.032;2024-01-30T14:08:15;12.50;99.90
6102;DHT22;3081;50.584;7.032;2024-01-30T14:10:42;12.60;99.90
6102;DHT22;3081;50.584;7.032;2024-01-30T14:13:09;12.80;99.90
6102;DHT22;3081;50.584;7.032;2024-01-30T14:15:37;12.90;99.90
6102;DHT22;3081;50.584;7.032;2024-01-30T14:18:05;13.10;99.90
6102;DHT22;3081;50.584;7.032;2024-01-30T14:20:34;13.40;99.90
6102;DHT22;3081;50.584;7.032;2024-01-30T14:23:00;13.60;99.90
6102;DHT22;3081;50.584;7.032;2024-01-30T14:25:27;13.70;99.90
6102;DHT22;3081;50.584;7.032;2024-01-30T14:27:54;13.80;99.90
6102;DHT22;3081;50.584;7.032;2024-01-30T14:30:21;13.90;99.90
6102;DHT22;3081;50.584;7.032;2024-01-30T14:32:49;14.00;99.90
6102;DHT22;3081;50.584;7.032;2024-01-30T14:35:19;14.00;99.90
6102;DHT22;3081;50.584;7.032;2024-01-30T14:37:46;14.00;99.90
6102;DHT22;3081;50.584;7.032;2024-01-30T14:40:13;13.90;99.90
6102;DHT22;3081;50.584;7.032;2024-01-30T14:42:42;13.90;99.90
6102;DHT22;3081;50.584;7.032;2024-01-30T14:45:09;13.80;99.90
6102;DHT22;3081;50.584;7.032;2024-01-30T14:47:37;13.70;99.90
6102;DHT22;3081;50.584;7.032;2024-01-30T14:50:05;13.80;99.90
6102;DHT22;3081;50.584;7.032;2024-01-30T14:52:34;13.80;99.90
6102;DHT22;3081;50.584;7.032;2024-01-30T14:55:01;13.60;99.90
6102;DHT22;3081;50.584;7.032;2024-01-30T14:57:28;13.40;99.90
6102;DHT22;3081;50.584;7.032;2024-01-30T14:59:55;13.40;99.90
6102;DHT22;3081;50.584;7.032;2024-01-30T15:02:22;13.40;99.90
6102;DHT22;3081;50.584;7.032;2024-01-30T15:04:49;13.40;99.90
6102;DHT22;3081;50.584;7.032;2024-01-30T15:07:16;13.50;99.90
6102;DHT22;3081;50.584;7.032;2024-01-30T15:09:44;13.50;99.90
6102;DHT22;3081;50.584;7.032;2024-01-30T15:12:11;13.50;99.90
6102;DHT22;3081;50.584;7.032;2024-01-30T15:14:38;13.50;99.90
6102;DHT22;3081;50.584;7.032;2024-01-30T15:17:04;13.40;99.90
6102;DHT22;3081;50.584;7.032;2024-01-30T15:19:31;13.40;99.90
6102;DHT22;3081;50.584;7.032;2024-01-30T15:21:58;13.30;99.90
6102;DHT22;3081;50.584;7.032;2024-01-30T15:24:25;13.20;99.90
6102;DHT22;3081;50.584;7.032;2024-01-30T15:26:53;13.20;99.90
6102;DHT22;3081;50.584;7.032;2024-01-30T15:29:20;13.20;99.90
6102;DHT22;3081;50.584;7.032;2024-01-30T15:31:48;13.10;99.90
6102;DHT22;3081;50.584;7.032;2024-01-30T15:34:15;13.00;99.90
6102;DHT22;3081;50.584;7.032;2024-01-30T15:36:42;12.80;99.90
6102;DHT22;3081;50.584;7.032;2024-01-30T15:39:09;12.80;99.90
6102;DHT22;3081;50.584;7.032;2024-01-30T15:41:36;12.80;99.90
6102;DHT22;3081;50.584;7.032;2024-01-30T15:44:05;12.80;99.90
6102;DHT22;3081;50.584;7.032;2024-01-30T15:46:32;12.70;99.90
6102;DHT22;3081;50.584;7.032;2024-01-30T15:48:59;12.70;99.90
6102;DHT22;3081;50.584;7.032;2024-01-30T15:51:26;12.70;99.90
6102;DHT22;3081;50.584;7.032;2024-01-30T15:53:53;12.60;99.90
6102;DHT22;3081;50.584;7.032;2024-01-30T15:56:20;12.60;99.90
6102;DHT22;3081;50.584;7.032;2024-01-30T15:58:47;12.60;99.90
6102;DHT22;3081;50.584;7.032;2024-01-30T16:01:16;12.60;99.90
6102;DHT22;3081;50.584;7.032;2024-01-30T16:03:43;12.60;99.90
6102;DHT22;3081;50.584;7.032;2024-01-30T16:06:11;12.60;99.90
6102;DHT22;3081;50.584;7.032;2024-01-30T16:08:38;12.50;99.90
6102;DHT22;3081;50.584;7.032;2024-01-30T16:11:05;12.50;99.90